Airfield :
LOGIN :

Register | Disclaimer

   EN    FR    IT 

 










Legend :    VFR   Marginal VFR   IFR   Intensive IFR   Very Intensive IFR
Visi :
Ceiling :
>= 8 km
>= 3000ft
5 to 8 km
1000 to 3000 ft
1500m to 5 km
500 to 1000 ft
800 to 1500m
200 to 500 ft
< 800m
< 200 ft
Symbols :   Thunderstorms  Fog  Heavy snow  Heavy precipitations  Wind > 20 kt
SIGMETs :     Misc.  Thunderstorms  Icing  Turbulence  Mountain Waves  Volcanic Ashes






- Airport Elevation : 3 ft
- IATA code : DHR


EHKD - Den Helder De Kooy

CURRENT METAR :
  • 082245Z AUTO 17010KT 130V190 9999 FEW015CB SCT016 BKN024 04/03 Q0998 WHT

EXPIRED METARs :
  • 082231Z AUTO 17011KT 9999 DZ FEW015CB SCT028 BKN031 04/03 Q0998 BLU
  • 082218Z AUTO 17012KT 9999 BKN015CB BKN019 BKN037 04/03 Q0998 WHT
  • 082157Z AUTO 17012KT 140V200 9999 SCT013 BKN015 04/03 Q0998 GRN
  • 082131Z AUTO 17011KT 140V200 9999 BKN013 04/02 Q0997 GRN
  • 082127Z AUTO 17011KT 140V200 9999 SCT013 04/02 Q0997 GRN
  • 082119Z AUTO 17012KT 9999 FEW013 BKN037 04/02 Q0997 BLU
  • 082055Z AUTO 17013KT 9999 BKN014 BKN016 BKN020 04/03 Q0997 GRN
  • 082040Z AUTO 18015KT 9999 BKN014 BKN020 BKN025 04/03 Q0997 GRN
  • 082036Z AUTO 18015KT 9999 SCT014 SCT020 BKN024 04/03 Q0997 GRN
  • 082025Z AUTO 18014KT 9999 FEW016 04/02 Q0997 BLU
  • 082015Z AUTO 17013KT 9999 FEW016 04/02 Q0997 BLU
  • 081955Z AUTO 18013KT 9999 BKN017 BKN022 BKN027 04/03 Q0997 WHT
  • 081948Z AUTO 18013KT 9999 FEW015 SCT018 BKN023 04/02 Q0997 WHT

TAF TAF EHKD
Valid from the 08 at 18:00 until the 09 at 06:00 UTC


081738Z 0818/0906 18015KT 9999 BKN020
TEMPO 0820/0906 21015G25KT 4500 SHRA SCT012 SCT018CB



MET'MAP, your aeronautical weather chart ! - Copyright ORBIFLY December 2007 - Disclaimer

ORBIFLY MET'MAP TEAM :

Programming & Development : Alexandra Zaïnal
Concept & original design : Baudouin d'Aumeries
Assistance for programming : Marc-Olivier Méhu
Technical & hardware support : Manuel Goepfert

Contact : metmap@orbifly.com




SOURCES & CREDITS :

   NOAA